createdAt,value
2023-02-24T00:02:05.623Z,-140.81
2023-02-24T00:07:10.246Z,-140.81
2023-02-24T00:17:14.865Z,-140.81
2023-02-24T00:27:17.739Z,-140.81
2023-02-24T00:32:19.552Z,-140.81
2023-02-24T00:47:27.922Z,-140.81
2023-02-24T00:52:29.442Z,-140.81
2023-02-24T00:57:33.920Z,-140.81
2023-02-24T01:02:35.433Z,-140.81
2023-02-24T01:07:36.959Z,8.15
2023-02-24T01:12:49.320Z,-140.81
2023-02-24T01:17:50.919Z,-140.81
2023-02-24T01:27:58.268Z,-140.81
2023-02-24T01:33:02.167Z,-140.81
2023-02-24T01:38:03.734Z,-140.81
2023-02-24T01:43:08.724Z,-140.81
2023-02-24T01:48:12.051Z,-140.81
2023-02-24T01:53:14.935Z,-140.81
2023-02-24T02:03:29.638Z,-140.81
2023-02-24T02:08:32.191Z,-140.81
2023-02-24T02:13:35.705Z,-140.81
2023-02-24T02:19:05.165Z,-140.81
2023-02-24T02:24:26.747Z,-140.81
2023-02-24T02:30:03.460Z,-140.81
2023-02-24T02:35:19.080Z,-140.81
2023-02-24T02:40:37.506Z,-140.81
2023-02-24T02:45:47.501Z,-140.81
2023-02-24T02:51:06.092Z,-140.81
2023-02-24T02:56:14.133Z,-140.81
2023-02-24T03:01:21.108Z,-140.81
2023-02-24T03:06:36.775Z,-140.81
2023-02-24T03:11:39.415Z,-140.81
2023-02-24T03:16:43.960Z,-140.81
2023-02-24T03:21:51.759Z,-140.81
2023-02-24T03:27:03.957Z,-140.81
2023-02-24T03:32:12.616Z,-140.81
2023-02-24T03:37:14.206Z,-140.81
2023-02-24T03:42:19.173Z,-140.81
2023-02-24T03:47:20.890Z,-140.81
2023-02-24T03:52:29.183Z,-140.81
2023-02-24T03:57:34.652Z,-140.81
2023-02-24T04:02:37.016Z,-140.81
2023-02-24T04:08:00.959Z,-140.81
2023-02-24T04:13:10.322Z,-140.81
2023-02-24T04:18:29.445Z,-140.81
2023-02-24T04:23:38.576Z,-140.81
2023-02-24T04:28:42.354Z,-140.81
2023-02-24T04:33:50.158Z,-140.81
2023-02-24T04:38:54.821Z,-140.81
2023-02-24T04:43:56.496Z,-140.81
2023-02-24T04:48:57.942Z,-140.81
2023-02-24T04:59:00.903Z,-140.81
2023-02-24T05:04:03.122Z,-140.81
2023-02-24T05:09:14.064Z,-140.81
2023-02-24T05:14:18.375Z,-140.81
2023-02-24T05:19:46.570Z,-140.81
2023-02-24T05:24:48.202Z,-140.81
2023-02-24T05:29:49.737Z,-140.81
2023-02-24T05:34:51.154Z,-140.81
2023-02-24T05:40:00.176Z,-140.81
2023-02-24T05:45:02.142Z,-140.81
2023-02-24T05:50:04.198Z,-140.81
2023-02-24T05:55:07.105Z,-140.81
2023-02-24T06:00:14.933Z,-140.81
2023-02-24T06:05:25.512Z,-140.81
2023-02-24T06:10:27.599Z,-140.81
2023-02-24T06:15:29.893Z,-140.81
2023-02-24T06:20:32.909Z,-140.81
2023-02-24T06:25:34.408Z,-140.81
2023-02-24T06:30:37.640Z,-140.81
2023-02-24T06:40:42.527Z,-140.81
2023-02-24T06:45:45.303Z,-140.81
2023-02-24T06:50:51.625Z,-140.81
2023-02-24T06:55:53.051Z,-140.81
2023-02-24T07:00:57.174Z,-140.81
2023-02-24T07:06:20.134Z,-140.81
2023-02-24T07:16:25.110Z,-140.81
2023-02-24T07:31:34.326Z,-140.81
2023-02-24T07:36:48.975Z,8.15
2023-02-24T07:46:56.576Z,-140.81
2023-02-24T07:51:58.256Z,8.15
2023-02-24T07:57:00.019Z,-140.81
2023-02-24T08:02:04.592Z,8.15
2023-02-24T08:07:12.929Z,-140.81
2023-02-24T08:12:22.586Z,8.15
2023-02-24T08:17:26.357Z,8.15
2023-02-24T08:22:35.992Z,-140.81
2023-02-24T08:27:38.972Z,8.15
2023-02-24T08:37:49.905Z,8.15
2023-02-24T08:47:54.211Z,6.79
2023-02-24T08:52:55.722Z,6.79
2023-02-24T08:58:01.507Z,6.79
2023-02-24T09:03:08.175Z,7.03
2023-02-24T09:08:09.607Z,6.78
2023-02-24T09:13:12.164Z,7.04
2023-02-24T09:18:14.349Z,7.15
2023-02-24T09:23:20.024Z,7.02
2023-02-24T09:28:32.697Z,6.86
2023-02-24T09:33:39.417Z,7.11
2023-02-24T09:39:01.529Z,7.04
2023-02-24T09:44:07.516Z,7.25
2023-02-24T09:49:17.207Z,7.23
2023-02-24T09:54:24.580Z,7.19
2023-02-24T09:59:36.191Z,7.26
2023-02-24T10:04:53.911Z,7.21
2023-02-24T10:10:19.411Z,7.07
2023-02-24T10:16:06.178Z,7.01
2023-02-24T10:21:11.003Z,6.71
2023-02-24T10:26:31.450Z,7.04
2023-02-24T10:31:47.960Z,7.24
2023-02-24T10:36:50.278Z,6.91
2023-02-24T10:41:58.471Z,6.91
2023-02-24T10:47:13.295Z,6.98
2023-02-24T10:52:36.402Z,6.84
2023-02-24T10:57:59.149Z,6.84
2023-02-24T11:03:19.465Z,6.84
2023-02-24T11:08:36.761Z,6.84
2023-02-24T11:13:56.955Z,6.87
2023-02-24T11:18:58.620Z,6.87
2023-02-24T11:29:04.014Z,6.57
2023-02-24T11:39:53.017Z,6.57
2023-02-24T11:55:19.919Z,-140.81
2023-02-24T12:10:47.247Z,6.57
2023-02-24T12:15:56.969Z,6.57
2023-02-24T12:21:12.241Z,-140.81
2023-02-24T12:26:19.862Z,6.70
2023-02-24T12:37:16.559Z,-140.81
2023-02-24T12:42:28.926Z,-140.81
2023-02-24T12:47:33.340Z,-140.81
2023-02-24T12:52:56.314Z,-140.81
2023-02-24T12:58:08.201Z,-140.81
2023-02-24T13:08:43.792Z,-140.81
2023-02-24T13:13:56.394Z,-140.81
2023-02-24T13:19:26.771Z,6.70
2023-02-24T13:24:28.404Z,6.70
2023-02-24T13:29:29.887Z,6.70
2023-02-24T13:34:54.102Z,6.70
2023-02-24T13:39:55.906Z,6.70
2023-02-24T13:45:21.053Z,6.70
2023-02-24T13:50:36.075Z,-140.81
2023-02-24T13:55:55.761Z,-140.81
2023-02-24T14:01:30.335Z,-140.81
2023-02-24T14:11:36.945Z,6.70
2023-02-24T14:16:39.753Z,-140.81
2023-02-24T14:21:48.976Z,6.70
2023-02-24T14:26:55.257Z,-140.81
2023-02-24T14:31:56.952Z,-140.81
2023-02-24T14:37:01.877Z,-140.81
2023-02-24T14:42:14.718Z,-140.81
2023-02-24T14:47:19.305Z,-140.81
2023-02-24T14:52:31.297Z,-140.81
2023-02-24T14:57:42.494Z,-140.81
2023-02-24T15:02:50.515Z,6.70
2023-02-24T15:07:52.224Z,-140.81
2023-02-24T15:18:09.090Z,-140.81
2023-02-24T15:23:30.788Z,-140.81
2023-02-24T15:28:34.905Z,-140.81
2023-02-24T15:33:43.005Z,-140.81
2023-02-24T15:38:45.429Z,-140.81
2023-02-24T15:43:50.184Z,-140.81
2023-02-24T15:48:53.555Z,-140.81
2023-02-24T15:53:55.187Z,-140.81
2023-02-24T15:58:56.713Z,-140.81
2023-02-24T16:03:59.017Z,-140.81
2023-02-24T16:09:00.898Z,-140.81
2023-02-24T16:14:03.936Z,-140.81
2023-02-24T16:19:05.437Z,-140.81
2023-02-24T16:24:07.194Z,-140.81
2023-02-24T16:29:13.945Z,-140.81
2023-02-24T16:34:16.181Z,-140.81
2023-02-24T16:39:17.690Z,-140.81
2023-02-24T16:49:20.970Z,-140.81
2023-02-24T16:54:23.302Z,-140.81
2023-02-24T16:59:27.828Z,-140.81
2023-02-24T17:04:29.719Z,-140.81
2023-02-24T17:09:33.238Z,-140.81
2023-02-24T17:14:34.654Z,-140.81
2023-02-24T17:24:37.546Z,-140.81
2023-02-24T17:29:39.566Z,-140.81
2023-02-24T17:34:40.977Z,-140.81
2023-02-24T17:39:42.487Z,-140.81
2023-02-24T17:44:45.200Z,-140.81
2023-02-24T17:54:48.296Z,-140.81
2023-02-24T18:04:51.482Z,-140.81
2023-02-24T18:09:52.972Z,-140.81
2023-02-24T18:15:07.280Z,-140.81
2023-02-24T18:20:12.030Z,-140.81
2023-02-24T18:25:13.556Z,-140.81
2023-02-24T18:30:17.775Z,-140.81
2023-02-24T18:40:28.001Z,-140.81
2023-02-24T18:50:32.908Z,-140.81
2023-02-24T18:55:35.710Z,-140.81
2023-02-24T19:00:37.892Z,-140.81
2023-02-24T19:05:39.356Z,-140.81
2023-02-24T19:10:42.763Z,-140.81
2023-02-24T19:15:44.713Z,-140.81
2023-02-24T19:20:46.205Z,-140.81
2023-02-24T19:25:47.645Z,-140.81
2023-02-24T19:30:49.193Z,-140.81
2023-02-24T19:35:53.141Z,-140.81
2023-02-24T19:40:58.608Z,-140.81
2023-02-24T19:46:04.613Z,-140.81
2023-02-24T19:51:11.689Z,-140.81
2023-02-24T19:56:13.665Z,-140.81
2023-02-24T20:01:15.232Z,-140.81
2023-02-24T20:06:22.773Z,-140.81
2023-02-24T20:11:24.755Z,-140.81
2023-02-24T20:16:28.402Z,-140.81
2023-02-24T20:21:30.798Z,-140.81
2023-02-24T20:26:33.128Z,-140.81
2023-02-24T20:31:34.687Z,-140.81
2023-02-24T20:36:36.792Z,-140.81
2023-02-24T20:41:39.486Z,-140.81
2023-02-24T20:46:40.985Z,-140.81
2023-02-24T20:51:43.438Z,-140.81
2023-02-24T20:56:46.230Z,-140.81
2023-02-24T21:01:48.903Z,-140.81
2023-02-24T21:06:51.821Z,-140.81
2023-02-24T21:11:53.263Z,-140.81
2023-02-24T21:16:54.652Z,-140.81
2023-02-24T21:21:56.088Z,-140.81
2023-02-24T21:26:58.517Z,-140.81
2023-02-24T21:32:00.124Z,-140.81
2023-02-24T21:37:01.639Z,-140.81
2023-02-24T21:42:03.125Z,-140.81
2023-02-24T21:47:05.039Z,-140.81
2023-02-24T21:52:07.382Z,-140.81
2023-02-24T21:57:08.823Z,-140.81
2023-02-24T22:02:13.633Z,-140.81
2023-02-24T22:07:15.081Z,-140.81
2023-02-24T22:12:16.507Z,-140.81
2023-02-24T22:17:17.945Z,-140.81
2023-02-24T22:22:19.415Z,-140.81
2023-02-24T22:27:21.377Z,-140.81
2023-02-24T22:32:23.507Z,-140.81
2023-02-24T22:37:25.132Z,-140.81
2023-02-24T22:42:26.745Z,-140.81
2023-02-24T22:47:29.230Z,-140.81
2023-02-24T22:52:30.747Z,-140.81
2023-02-24T22:57:33.948Z,-140.81
2023-02-24T23:02:35.541Z,-140.81
2023-02-24T23:07:37.363Z,-140.81
2023-02-24T23:12:38.896Z,-140.81
2023-02-24T23:17:41.070Z,-140.81
2023-02-24T23:22:43.027Z,-140.81
2023-02-24T23:27:44.441Z,-140.81
2023-02-24T23:32:46.104Z,-140.81
2023-02-24T23:37:48.106Z,-140.81
2023-02-24T23:42:49.531Z,-140.81
2023-02-24T23:47:51.840Z,-140.81
2023-02-24T23:52:53.983Z,-140.81
2023-02-24T23:57:55.902Z,-140.81
